Time;durP1;ratioP1;P1;durP2;ratioP2;P2;SDS_P1;SDS_P2;PMS_P1;PMS_P2;Temp;Humidity;BMP_temperature;BMP_pressure;BME280_temperature;BME280_humidity;BME280_pressure;Samples;Min_cycle;Max_cycle;Signal;HPM_P1;HPM_P2
2024/01/17 00:01:30;;;;;;;85.33;38.87;;;;;;;;;;4412464;32;318226;-80
2024/01/17 00:03:57;;;;;;;78.07;38.83;;;;;;;;;;4402788;32;318184;-80
2024/01/17 00:06:26;;;;;;;78.63;39.70;;;;;;;;;;4404591;32;318356;-80
2024/01/17 00:08:55;;;;;;;74.97;40.10;;;;;;;;;;4373874;32;317556;-80
2024/01/17 00:11:33;;;;;;;84.83;41.23;;;;;;;;;;4393484;32;316775;-80
2024/01/17 00:14:00;;;;;;;93.90;44.43;;;;;;;;;;4378717;32;316588;-80
2024/01/17 00:16:31;;;;;;;78.03;40.83;;;;;;;;;;4397984;32;316717;-80
2024/01/17 00:18:59;;;;;;;89.33;42.30;;;;;;;;;;4390503;32;318375;-79
2024/01/17 00:21:33;;;;;;;87.97;44.07;;;;;;;;;;4411248;32;316481;-79
2024/01/17 00:24:00;;;;;;;77.37;42.87;;;;;;;;;;4402904;32;316764;-79
2024/01/17 00:26:30;;;;;;;89.37;45.03;;;;;;;;;;4405500;32;316203;-79
2024/01/17 00:28:57;;;;;;;77.13;41.60;;;;;;;;;;4391604;32;317935;-80
2024/01/17 00:31:26;;;;;;;79.43;41.37;;;;;;;;;;4381220;32;330273;-80
2024/01/17 00:33:53;;;;;;;90.23;45.10;;;;;;;;;;4364307;32;318318;-80
2024/01/17 00:36:30;;;;;;;82.83;43.17;;;;;;;;;;4371036;32;317564;-80
2024/01/17 00:39:06;;;;;;;80.83;42.27;;;;;;;;;;4364105;32;316568;-79
2024/01/17 00:41:42;;;;;;;81.67;43.10;;;;;;;;;;4397979;32;317610;-80
2024/01/17 00:44:14;;;;;;;78.83;40.13;;;;;;;;;;4378076;32;417817;-80
2024/01/17 00:46:41;;;;;;;72.13;38.73;;;;;;;;;;4398774;32;318473;-80
2024/01/17 00:49:08;;;;;;;71.23;39.70;;;;;;;;;;4406083;32;318029;-80
2024/01/17 00:54:16;;;;;;;86.03;44.63;;;;;;;;;;4396838;32;389952;-80
2024/01/17 00:56:47;;;;;;;84.33;45.43;;;;;;;;;;4386014;32;329884;-80
2024/01/17 00:59:13;;;;;;;78.87;44.17;;;;;;;;;;4400614;32;318498;-80
2024/01/17 01:01:41;;;;;;;74.77;41.50;;;;;;;;;;4401568;32;316832;-79
2024/01/17 01:04:12;;;;;;;76.47;42.10;;;;;;;;;;4427252;32;315456;-79
2024/01/17 01:06:45;;;;;;;74.87;41.63;;;;;;;;;;4396036;32;316370;-79
2024/01/17 01:09:12;;;;;;;67.53;37.97;;;;;;;;;;4381452;32;416470;-79
2024/01/17 01:11:42;;;;;;;65.67;33.97;;;;;;;;;;4406645;32;317665;-79
2024/01/17 01:14:12;;;;;;;65.43;34.10;;;;;;;;;;4385489;32;417519;-79
2024/01/17 01:16:42;;;;;;;60.53;32.07;;;;;;;;;;4423923;32;316661;-79
2024/01/17 01:19:11;;;;;;;55.10;31.23;;;;;;;;;;4400929;32;417376;-79
2024/01/17 01:21:44;;;;;;;55.93;30.27;;;;;;;;;;4424089;32;324275;-79
2024/01/17 01:24:13;;;;;;;55.03;31.87;;;;;;;;;;4355568;32;416494;-79
2024/01/17 01:26:42;;;;;;;58.27;31.33;;;;;;;;;;4372156;32;317553;-80
2024/01/17 01:29:16;;;;;;;76.63;35.37;;;;;;;;;;4342024;32;417894;-79
2024/01/17 01:31:45;;;;;;;86.57;44.30;;;;;;;;;;4367497;32;317001;-79
2024/01/17 01:34:15;;;;;;;71.10;39.97;;;;;;;;;;4384921;32;318161;-79
2024/01/17 01:36:45;;;;;;;56.53;34.27;;;;;;;;;;4383436;32;318110;-80
2024/01/17 01:39:15;;;;;;;70.90;36.90;;;;;;;;;;4377766;32;317868;-80
2024/01/17 01:41:52;;;;;;;67.90;36.70;;;;;;;;;;4383256;32;316727;-80
2024/01/17 01:44:22;;;;;;;71.87;39.03;;;;;;;;;;4381373;32;317543;-80
2024/01/17 01:46:50;;;;;;;77.80;38.67;;;;;;;;;;4365211;32;316688;-79
2024/01/17 01:49:19;;;;;;;65.27;37.30;;;;;;;;;;4397466;32;316661;-80
2024/01/17 01:51:51;;;;;;;62.27;35.63;;;;;;;;;;4380191;32;318150;-79
2024/01/17 01:54:27;;;;;;;61.73;32.67;;;;;;;;;;4374336;32;317517;-80
2024/01/17 01:56:59;;;;;;;48.00;29.50;;;;;;;;;;4373190;32;318299;-79
2024/01/17 01:59:28;;;;;;;50.40;28.67;;;;;;;;;;4379344;32;317581;-80
2024/01/17 02:01:58;;;;;;;56.03;31.93;;;;;;;;;;4382184;32;318270;-80
2024/01/17 02:04:28;;;;;;;59.33;30.30;;;;;;;;;;4400249;32;318021;-80
2024/01/17 02:07:01;;;;;;;66.07;33.20;;;;;;;;;;4394619;32;316197;-78
2024/01/17 02:09:32;;;;;;;72.67;37.37;;;;;;;;;;4417890;32;317224;-79
2024/01/17 02:12:03;;;;;;;74.37;39.27;;;;;;;;;;4396511;32;317281;-80
2024/01/17 02:14:33;;;;;;;73.13;39.40;;;;;;;;;;4425247;32;316306;-79
2024/01/17 02:17:00;;;;;;;60.13;32.83;;;;;;;;;;4404408;32;316758;-79
2024/01/17 02:19:38;;;;;;;88.57;41.97;;;;;;;;;;4415123;32;316179;-81
2024/01/17 02:22:06;;;;;;;90.27;48.53;;;;;;;;;;4398955;32;417004;-79
2024/01/17 02:24:36;;;;;;;126.97;62.53;;;;;;;;;;4403066;32;316731;-79
2024/01/17 02:27:05;;;;;;;106.17;56.00;;;;;;;;;;4363421;32;317899;-79
2024/01/17 02:32:23;;;;;;;67.97;37.27;;;;;;;;;;4364821;32;389732;-79
2024/01/17 02:34:54;;;;;;;58.53;29.93;;;;;;;;;;4359877;32;317709;-79
2024/01/17 02:37:21;;;;;;;60.40;31.20;;;;;;;;;;4387732;32;318183;-80
2024/01/17 02:39:55;;;;;;;55.30;29.10;;;;;;;;;;4366841;32;318004;-79
2024/01/17 02:42:23;;;;;;;46.43;26.33;;;;;;;;;;4395999;32;317409;-79
2024/01/17 02:44:54;;;;;;;47.70;24.83;;;;;;;;;;4390110;32;318276;-79
2024/01/17 02:47:23;;;;;;;43.40;25.80;;;;;;;;;;4409283;32;332136;-79
2024/01/17 02:49:55;;;;;;;47.50;26.40;;;;;;;;;;4379260;32;316318;-80
2024/01/17 02:52:27;;;;;;;47.20;26.00;;;;;;;;;;4397459;32;316611;-80
2024/01/17 02:55:06;;;;;;;42.73;26.00;;;;;;;;;;4367159;32;343507;-79
2024/01/17 02:57:36;;;;;;;51.10;26.97;;;;;;;;;;4378538;32;355828;-79
2024/01/17 03:00:03;;;;;;;43.73;25.07;;;;;;;;;;4376058;32;317715;-80
2024/01/17 03:02:33;;;;;;;44.60;24.53;;;;;;;;;;4373610;32;316702;-80
2024/01/17 03:05:00;;;;;;;47.27;24.97;;;;;;;;;;4360005;32;318119;-79
2024/01/17 03:07:30;;;;;;;46.90;25.97;;;;;;;;;;4388659;32;316867;-79
2024/01/17 03:09:59;;;;;;;49.50;26.07;;;;;;;;;;4353613;32;317482;-79
2024/01/17 03:12:29;;;;;;;44.40;27.13;;;;;;;;;;4395481;32;316607;-81
2024/01/17 03:14:56;;;;;;;56.20;27.17;;;;;;;;;;4389649;32;316878;-79
2024/01/17 03:17:23;;;;;;;47.27;27.37;;;;;;;;;;4403216;32;318196;-80
2024/01/17 03:19:54;;;;;;;46.13;27.17;;;;;;;;;;4400729;32;318264;-81
2024/01/17 03:22:27;;;;;;;45.40;25.57;;;;;;;;;;4410325;32;317673;-80
2024/01/17 03:24:54;;;;;;;50.17;25.23;;;;;;;;;;4384821;32;318712;-80
2024/01/17 03:27:22;;;;;;;53.80;28.77;;;;;;;;;;4393745;32;317492;-80
2024/01/17 03:29:52;;;;;;;61.97;33.90;;;;;;;;;;4396336;32;318161;-80
2024/01/17 03:32:19;;;;;;;72.13;35.80;;;;;;;;;;4409000;32;318094;-80
2024/01/17 03:34:51;;;;;;;66.33;34.10;;;;;;;;;;4399473;32;317905;-80
2024/01/17 03:37:22;;;;;;;69.87;36.37;;;;;;;;;;4395565;32;345327;-80
2024/01/17 03:39:49;;;;;;;81.13;41.47;;;;;;;;;;4381658;32;317833;-80
2024/01/17 03:42:16;;;;;;;88.87;43.50;;;;;;;;;;4395556;32;318437;-80
2024/01/17 03:44:45;;;;;;;84.80;44.53;;;;;;;;;;4392501;32;318345;-80
2024/01/17 03:47:12;;;;;;;81.67;44.90;;;;;;;;;;4408315;32;317475;-80
2024/01/17 03:49:40;;;;;;;88.37;43.77;;;;;;;;;;4394923;32;318270;-80
2024/01/17 03:52:08;;;;;;;77.27;40.97;;;;;;;;;;4398338;32;318161;-79
2024/01/17 03:54:37;;;;;;;75.53;40.37;;;;;;;;;;4400155;32;317808;-80
2024/01/17 03:57:08;;;;;;;85.50;42.70;;;;;;;;;;4392928;32;418954;-80
2024/01/17 03:59:36;;;;;;;76.97;39.10;;;;;;;;;;4404759;32;317952;-80
2024/01/17 04:02:10;;;;;;;71.87;40.20;;;;;;;;;;4362336;32;316890;-80
2024/01/17 04:04:40;;;;;;;78.57;39.47;;;;;;;;;;4385607;32;317759;-80
2024/01/17 04:07:22;;;;;;;81.90;39.90;;;;;;;;;;4378433;32;418763;-79
2024/01/17 04:09:50;;;;;;;63.17;34.97;;;;;;;;;;4363143;32;318189;-79
2024/01/17 04:12:27;;;;;;;65.73;34.33;;;;;;;;;;4398809;32;318288;-79
2024/01/17 04:14:56;;;;;;;60.97;35.90;;;;;;;;;;4370091;32;316849;-79
2024/01/17 04:17:35;;;;;;;73.87;36.83;;;;;;;;;;4396676;32;318329;-80
2024/01/17 04:20:06;;;;;;;67.43;37.93;;;;;;;;;;4341156;32;317403;-79
2024/01/17 04:22:35;;;;;;;63.30;35.43;;;;;;;;;;4360332;32;317269;-79
2024/01/17 04:25:13;;;;;;;76.20;39.37;;;;;;;;;;4339912;32;418608;-79
2024/01/17 04:27:41;;;;;;;76.77;37.93;;;;;;;;;;4345344;32;317434;-82
2024/01/17 04:30:17;;;;;;;79.47;42.37;;;;;;;;;;4340733;32;320099;-79
2024/01/17 04:32:53;;;;;;;78.10;41.27;;;;;;;;;;4334817;32;317822;-79
2024/01/17 04:35:25;;;;;;;71.57;39.97;;;;;;;;;;4360882;32;317331;-80
2024/01/17 04:38:00;;;;;;;74.73;39.30;;;;;;;;;;4334294;32;318186;-81
2024/01/17 04:40:27;;;;;;;94.43;51.87;;;;;;;;;;4346644;32;316549;-81
2024/01/17 04:42:58;;;;;;;93.03;49.33;;;;;;;;;;4345379;32;317762;-80
2024/01/17 04:45:35;;;;;;;95.30;52.10;;;;;;;;;;4336641;32;316700;-80
2024/01/17 04:48:13;;;;;;;113.17;56.47;;;;;;;;;;4320808;32;417498;-81
2024/01/17 04:50:42;;;;;;;130.47;68.90;;;;;;;;;;4351810;32;319016;-80
2024/01/17 04:53:20;;;;;;;131.50;71.23;;;;;;;;;;4340755;32;317752;-79
2024/01/17 04:55:48;;;;;;;152.87;79.50;;;;;;;;;;4345713;32;318941;-80
2024/01/17 04:58:16;;;;;;;304.57;140.37;;;;;;;;;;4374731;32;318691;-81
2024/01/17 05:00:45;;;;;;;223.47;109.17;;;;;;;;;;4395868;32;320200;-81
2024/01/17 05:03:15;;;;;;;175.90;88.33;;;;;;;;;;4387119;32;319413;-80
2024/01/17 05:05:43;;;;;;;136.27;70.93;;;;;;;;;;4376407;32;318950;-80
2024/01/17 05:08:11;;;;;;;127.43;63.37;;;;;;;;;;4391306;32;319225;-80
2024/01/17 05:10:38;;;;;;;105.73;57.70;;;;;;;;;;4388191;32;318556;-80
2024/01/17 05:13:07;;;;;;;89.77;48.77;;;;;;;;;;4401366;32;318634;-80
2024/01/17 05:15:41;;;;;;;88.37;46.90;;;;;;;;;;4399414;32;317719;-81
2024/01/17 05:18:09;;;;;;;101.70;51.03;;;;;;;;;;4378918;32;417295;-80
2024/01/17 05:20:41;;;;;;;109.67;54.53;;;;;;;;;;4396548;32;319343;-81
2024/01/17 05:23:08;;;;;;;109.83;52.87;;;;;;;;;;4393095;32;419531;-80
2024/01/17 05:25:35;;;;;;;108.90;50.93;;;;;;;;;;4405549;32;318647;-80
2024/01/17 05:28:02;;;;;;;98.60;47.53;;;;;;;;;;4353930;32;418977;-81
2024/01/17 05:30:30;;;;;;;106.90;56.37;;;;;;;;;;4396276;32;357336;-81
2024/01/17 05:33:01;;;;;;;110.73;57.30;;;;;;;;;;4403475;32;319093;-81
2024/01/17 05:35:31;;;;;;;141.10;64.17;;;;;;;;;;4413853;32;318527;-81
2024/01/17 05:38:01;;;;;;;158.50;70.60;;;;;;;;;;4397524;32;319275;-81
2024/01/17 05:40:32;;;;;;;136.30;65.83;;;;;;;;;;4406301;32;318599;-81
2024/01/17 05:43:02;;;;;;;208.53;83.80;;;;;;;;;;4401679;32;318416;-81
2024/01/17 05:45:30;;;;;;;190.17;76.40;;;;;;;;;;4413003;32;319100;-82
2024/01/17 05:48:01;;;;;;;179.43;74.67;;;;;;;;;;4395771;32;319085;-81
2024/01/17 05:50:31;;;;;;;184.90;71.93;;;;;;;;;;4413285;32;318205;-82
2024/01/17 05:53:00;;;;;;;164.80;71.53;;;;;;;;;;4404760;32;352278;-81
2024/01/17 05:55:31;;;;;;;180.63;81.33;;;;;;;;;;4410212;32;318512;-81
2024/01/17 05:58:01;;;;;;;171.70;77.60;;;;;;;;;;4382895;32;319191;-81
2024/01/17 06:00:29;;;;;;;166.07;72.80;;;;;;;;;;4407255;32;317353;-82
2024/01/17 06:02:56;;;;;;;140.80;71.33;;;;;;;;;;4400255;32;318653;-82
2024/01/17 06:05:24;;;;;;;160.77;72.37;;;;;;;;;;4413920;32;319014;-81
2024/01/17 06:08:08;;;;;;;154.93;72.60;;;;;;;;;;4383194;32;319365;-81
2024/01/17 06:10:40;;;;;;;173.87;82.13;;;;;;;;;;4395177;32;318406;-81
2024/01/17 06:13:09;;;;;;;163.63;79.20;;;;;;;;;;4395624;32;318423;-81
2024/01/17 06:15:36;;;;;;;165.10;81.10;;;;;;;;;;4411347;32;319425;-81
2024/01/17 06:18:02;;;;;;;194.13;93.43;;;;;;;;;;4394515;32;418929;-81
2024/01/17 06:20:30;;;;;;;179.10;89.53;;;;;;;;;;4412866;32;319979;-81
2024/01/17 06:22:58;;;;;;;173.07;89.40;;;;;;;;;;4405540;32;320040;-81
2024/01/17 06:25:29;;;;;;;172.43;88.47;;;;;;;;;;4410122;32;318347;-81
2024/01/17 06:27:56;;;;;;;170.57;86.23;;;;;;;;;;4396355;32;319262;-81
2024/01/17 06:30:25;;;;;;;126.60;68.30;;;;;;;;;;4413832;32;319278;-80
2024/01/17 06:32:53;;;;;;;85.53;48.43;;;;;;;;;;4403036;32;343100;-80
2024/01/17 06:35:20;;;;;;;82.10;47.60;;;;;;;;;;4419192;32;317119;-80
2024/01/17 06:37:48;;;;;;;87.97;49.30;;;;;;;;;;4405987;32;316461;-80
2024/01/17 06:40:16;;;;;;;100.80;52.80;;;;;;;;;;4413854;32;316071;-78
2024/01/17 06:42:45;;;;;;;99.67;53.57;;;;;;;;;;4402907;32;319391;-79
2024/01/17 06:45:12;;;;;;;116.47;61.93;;;;;;;;;;4398829;32;317795;-81
2024/01/17 06:47:40;;;;;;;123.33;67.63;;;;;;;;;;4389313;32;327038;-81
2024/01/17 06:50:09;;;;;;;107.13;60.93;;;;;;;;;;4407050;32;318906;-80
2024/01/17 06:52:40;;;;;;;138.77;76.50;;;;;;;;;;4413995;32;318825;-80
2024/01/17 06:55:07;;;;;;;153.07;77.40;;;;;;;;;;4400183;32;417422;-81
2024/01/17 06:57:35;;;;;;;146.20;77.40;;;;;;;;;;4403657;32;319229;-80
2024/01/17 07:00:07;;;;;;;150.10;79.70;;;;;;;;;;4386993;32;417920;-81
2024/01/17 07:02:33;;;;;;;154.70;82.57;;;;;;;;;;4406135;32;317908;-82
2024/01/17 07:05:01;;;;;;;156.77;83.13;;;;;;;;;;4393586;32;318988;-82
2024/01/17 07:07:30;;;;;;;148.73;85.83;;;;;;;;;;4372908;32;319245;-80
2024/01/17 07:09:58;;;;;;;153.63;82.27;;;;;;;;;;4391255;32;318911;-81
2024/01/17 07:12:25;;;;;;;170.77;91.10;;;;;;;;;;4363482;32;318796;-80
2024/01/17 07:14:54;;;;;;;180.73;94.70;;;;;;;;;;4354624;32;318934;-81
2024/01/17 07:17:23;;;;;;;173.17;96.63;;;;;;;;;;4402934;32;319719;-81
2024/01/17 07:19:52;;;;;;;194.33;102.03;;;;;;;;;;4392075;32;317444;-80
2024/01/17 07:22:20;;;;;;;209.60;105.97;;;;;;;;;;4409428;32;320167;-79
2024/01/17 07:24:47;;;;;;;204.50;105.63;;;;;;;;;;4394635;32;320518;-80
2024/01/17 07:27:17;;;;;;;204.13;107.90;;;;;;;;;;4412594;32;318510;-80
2024/01/17 07:29:43;;;;;;;195.13;103.00;;;;;;;;;;4399198;32;320573;-82
2024/01/17 07:32:10;;;;;;;174.90;93.70;;;;;;;;;;4401554;32;320207;-82
2024/01/17 07:34:39;;;;;;;175.60;94.50;;;;;;;;;;4398385;32;378761;-80
2024/01/17 07:37:06;;;;;;;185.80;98.10;;;;;;;;;;4408450;32;318508;-83
2024/01/17 07:39:34;;;;;;;187.97;94.90;;;;;;;;;;4411909;32;319385;-82
2024/01/17 07:42:03;;;;;;;135.33;72.13;;;;;;;;;;4396276;32;319071;-81
2024/01/17 07:44:32;;;;;;;129.67;69.20;;;;;;;;;;4409943;32;318366;-81
2024/01/17 07:47:00;;;;;;;168.43;90.17;;;;;;;;;;4399368;32;340286;-80
2024/01/17 07:49:29;;;;;;;171.03;93.80;;;;;;;;;;4399563;32;319252;-81
2024/01/17 07:52:00;;;;;;;153.63;83.97;;;;;;;;;;4387104;32;321057;-80
2024/01/17 07:54:27;;;;;;;123.93;76.27;;;;;;;;;;4410244;32;318471;-81
2024/01/17 07:56:55;;;;;;;143.60;79.13;;;;;;;;;;4397480;32;319503;-79
2024/01/17 07:59:21;;;;;;;148.90;84.33;;;;;;;;;;4403008;32;319013;-81
2024/01/17 08:01:49;;;;;;;154.13;90.00;;;;;;;;;;4379163;32;318994;-81
2024/01/17 08:04:16;;;;;;;155.93;90.17;;;;;;;;;;4405139;32;319507;-80
2024/01/17 08:06:45;;;;;;;154.23;90.57;;;;;;;;;;4390263;32;319389;-80
2024/01/17 08:09:20;;;;;;;164.53;99.70;;;;;;;;;;4412276;32;319292;-80
2024/01/17 08:11:47;;;;;;;169.83;100.10;;;;;;;;;;4395788;32;318940;-80
2024/01/17 08:14:16;;;;;;;182.77;101.47;;;;;;;;;;4395393;32;319546;-79
2024/01/17 08:16:44;;;;;;;174.73;101.50;;;;;;;;;;4385319;32;320464;-79
2024/01/17 08:19:11;;;;;;;178.03;99.30;;;;;;;;;;4393542;32;320437;-79
2024/01/17 08:21:38;;;;;;;167.07;97.07;;;;;;;;;;4393225;32;348989;-79
2024/01/17 08:24:05;;;;;;;177.73;100.40;;;;;;;;;;4403701;32;319431;-79
2024/01/17 08:26:34;;;;;;;182.77;106.80;;;;;;;;;;4398216;32;357074;-81
2024/01/17 08:29:03;;;;;;;167.87;98.23;;;;;;;;;;4394924;32;420627;-80
2024/01/17 08:31:31;;;;;;;166.33;97.60;;;;;;;;;;4403040;32;319328;-80
2024/01/17 08:33:59;;;;;;;150.90;88.23;;;;;;;;;;4379768;32;319517;-81
2024/01/17 08:36:29;;;;;;;146.77;83.10;;;;;;;;;;4406689;32;317837;-79
2024/01/17 08:38:56;;;;;;;133.90;74.63;;;;;;;;;;4394826;32;319316;-79
2024/01/17 08:41:23;;;;;;;106.97;61.27;;;;;;;;;;4405341;32;317275;-80
2024/01/17 08:43:55;;;;;;;103.83;57.87;;;;;;;;;;4391259;32;319680;-79
2024/01/17 08:46:22;;;;;;;94.57;53.63;;;;;;;;;;4401415;32;319379;-79
2024/01/17 08:48:49;;;;;;;79.43;47.37;;;;;;;;;;4393055;32;316850;-81
2024/01/17 08:51:17;;;;;;;84.77;46.83;;;;;;;;;;4406134;32;318257;-80
2024/01/17 08:53:47;;;;;;;94.17;50.00;;;;;;;;;;4394126;32;317299;-80
2024/01/17 08:56:15;;;;;;;107.07;60.47;;;;;;;;;;4406732;32;317387;-81
2024/01/17 08:58:42;;;;;;;89.83;50.57;;;;;;;;;;4398344;32;318505;-81
2024/01/17 09:01:13;;;;;;;111.97;55.80;;;;;;;;;;4407575;32;318435;-81
2024/01/17 09:03:43;;;;;;;95.87;51.77;;;;;;;;;;4397032;32;319557;-81
2024/01/17 09:06:10;;;;;;;77.27;50.20;;;;;;;;;;4406240;32;317351;-81
2024/01/17 09:08:37;;;;;;;82.60;49.27;;;;;;;;;;4382242;32;359163;-81
2024/01/17 09:11:05;;;;;;;77.40;46.63;;;;;;;;;;4395280;32;317563;-82
2024/01/17 09:13:33;;;;;;;81.73;44.97;;;;;;;;;;4398864;32;317931;-81
2024/01/17 09:16:01;;;;;;;74.23;42.27;;;;;;;;;;4378421;32;318449;-81
2024/01/17 09:18:32;;;;;;;92.90;51.63;;;;;;;;;;4395923;32;320812;-81
2024/01/17 09:21:02;;;;;;;79.77;50.13;;;;;;;;;;4394075;32;318046;-81
2024/01/17 09:23:30;;;;;;;108.17;57.63;;;;;;;;;;4386201;32;317676;-81
2024/01/17 09:25:58;;;;;;;276.73;153.70;;;;;;;;;;4393706;32;318337;-80
2024/01/17 09:28:26;;;;;;;145.20;82.83;;;;;;;;;;4410171;32;319827;-80
2024/01/17 09:30:54;;;;;;;100.60;59.67;;;;;;;;;;4398244;32;318644;-82
2024/01/17 09:33:21;;;;;;;79.07;51.07;;;;;;;;;;4407708;32;318823;-80
2024/01/17 09:35:54;;;;;;;74.73;47.20;;;;;;;;;;4391480;32;318600;-80
2024/01/17 09:38:22;;;;;;;76.27;47.47;;;;;;;;;;4394663;32;316791;-80
2024/01/17 09:40:49;;;;;;;80.60;46.80;;;;;;;;;;4375868;32;318575;-80
2024/01/17 09:43:21;;;;;;;75.30;47.97;;;;;;;;;;4404721;32;318191;-80
2024/01/17 09:45:48;;;;;;;88.60;52.03;;;;;;;;;;4396423;32;317934;-81
2024/01/17 09:48:18;;;;;;;82.03;50.13;;;;;;;;;;4409385;32;317653;-80
2024/01/17 09:50:48;;;;;;;86.83;51.67;;;;;;;;;;4399247;32;317564;-82
2024/01/17 09:53:21;;;;;;;89.47;51.70;;;;;;;;;;4407641;32;318301;-80
2024/01/17 09:55:54;;;;;;;75.27;46.90;;;;;;;;;;4382537;32;316547;-79
2024/01/17 09:58:22;;;;;;;68.00;36.07;;;;;;;;;;4396559;32;317508;-78
2024/01/17 10:00:54;;;;;;;56.67;36.47;;;;;;;;;;4379053;32;316685;-79
2024/01/17 10:03:23;;;;;;;63.70;39.87;;;;;;;;;;4388072;32;318391;-80
2024/01/17 10:05:52;;;;;;;69.87;41.53;;;;;;;;;;4388209;32;318059;-80
2024/01/17 10:08:23;;;;;;;51.97;33.50;;;;;;;;;;4401078;32;316854;-79
2024/01/17 10:10:52;;;;;;;61.20;36.83;;;;;;;;;;4386133;32;317864;-79
2024/01/17 10:13:22;;;;;;;62.47;39.77;;;;;;;;;;4399459;32;318014;-79
2024/01/17 10:15:52;;;;;;;74.00;41.20;;;;;;;;;;4393964;32;317579;-79
2024/01/17 10:18:20;;;;;;;66.77;40.77;;;;;;;;;;4410595;32;317936;-80
2024/01/17 10:20:47;;;;;;;75.70;43.10;;;;;;;;;;4399452;32;318220;-79
2024/01/17 10:23:15;;;;;;;50.63;32.07;;;;;;;;;;4408205;32;316499;-79
2024/01/17 10:25:54;;;;;;;63.53;34.10;;;;;;;;;;4402287;32;317914;-79
2024/01/17 10:28:23;;;;;;;61.20;33.60;;;;;;;;;;4402314;32;318366;-79
2024/01/17 10:30:50;;;;;;;59.50;34.40;;;;;;;;;;4396927;32;317858;-79
2024/01/17 10:33:17;;;;;;;55.57;31.20;;;;;;;;;;4411253;32;318405;-79
2024/01/17 10:35:48;;;;;;;66.40;32.80;;;;;;;;;;4388819;32;317319;-79
2024/01/17 10:38:16;;;;;;;56.37;26.63;;;;;;;;;;4410952;32;353723;-79
2024/01/17 10:40:48;;;;;;;46.10;25.03;;;;;;;;;;4399904;32;351590;-78
2024/01/17 10:43:19;;;;;;;45.43;27.37;;;;;;;;;;4403694;32;316682;-80
2024/01/17 10:45:50;;;;;;;38.90;23.47;;;;;;;;;;4381566;32;316622;-80
2024/01/17 10:48:18;;;;;;;37.17;20.87;;;;;;;;;;4398630;32;317393;-80
2024/01/17 10:50:46;;;;;;;32.17;18.50;;;;;;;;;;4392904;32;318265;-80
2024/01/17 10:53:18;;;;;;;30.00;18.83;;;;;;;;;;4396707;32;318124;-80
2024/01/17 10:56:04;;;;;;;34.63;20.67;;;;;;;;;;4380546;32;356695;-78
2024/01/17 10:58:36;;;;;;;29.77;20.37;;;;;;;;;;4390808;32;317525;-80
2024/01/17 11:01:11;;;;;;;44.53;23.50;;;;;;;;;;4396022;32;417574;-81
2024/01/17 11:03:45;;;;;;;45.07;26.30;;;;;;;;;;4396038;32;317765;-81
2024/01/17 11:06:15;;;;;;;43.10;26.63;;;;;;;;;;4397344;32;318137;-80
2024/01/17 11:08:46;;;;;;;34.53;23.60;;;;;;;;;;4387648;32;317970;-79
2024/01/17 11:11:17;;;;;;;50.20;30.23;;;;;;;;;;4407039;32;317474;-81
2024/01/17 11:13:47;;;;;;;65.70;35.57;;;;;;;;;;4399628;32;316693;-82
2024/01/17 11:16:18;;;;;;;58.97;32.90;;;;;;;;;;4396286;32;316565;-83
2024/01/17 11:18:48;;;;;;;44.17;26.43;;;;;;;;;;4382104;32;317780;-81
2024/01/17 11:21:15;;;;;;;42.23;23.63;;;;;;;;;;4396444;32;318164;-83
2024/01/17 11:23:47;;;;;;;50.67;26.03;;;;;;;;;;4402142;32;317709;-82
2024/01/17 11:26:33;;;;;;;60.47;35.03;;;;;;;;;;4412786;32;316467;-80
2024/01/17 11:29:17;;;;;;;38.87;25.53;;;;;;;;;;4400385;32;317831;-80
2024/01/17 11:31:56;;;;;;;43.93;24.47;;;;;;;;;;4389434;32;318367;-80
2024/01/17 11:34:24;;;;;;;35.87;21.47;;;;;;;;;;4399429;32;318678;-79
2024/01/17 11:36:52;;;;;;;34.80;22.73;;;;;;;;;;4400614;32;328043;-79
2024/01/17 11:39:20;;;;;;;61.10;27.80;;;;;;;;;;4401306;32;318618;-79
2024/01/17 11:41:57;;;;;;;51.07;30.43;;;;;;;;;;4359575;32;318368;-79
2024/01/17 11:44:28;;;;;;;51.83;31.67;;;;;;;;;;4386954;32;318062;-79
2024/01/17 11:46:55;;;;;;;46.37;27.77;;;;;;;;;;4384012;32;318644;-82
2024/01/17 11:49:45;;;;;;;48.93;27.37;;;;;;;;;;4407911;32;319089;-82
2024/01/17 11:52:33;;;;;;;41.00;29.77;;;;;;;;;;4379930;32;419233;-82
2024/01/17 11:55:01;;;;;;;44.03;25.73;;;;;;;;;;4381200;32;349661;-84
2024/01/17 11:57:37;;;;;;;39.93;23.87;;;;;;;;;;4399322;32;318787;-82
2024/01/17 12:00:07;;;;;;;53.70;26.33;;;;;;;;;;4385955;32;421133;-82
2024/01/17 12:02:45;;;;;;;35.87;20.07;;;;;;;;;;4404455;32;316415;-84
2024/01/17 12:05:15;;;;;;;30.07;19.53;;;;;;;;;;4370610;32;418664;-82
2024/01/17 12:07:47;;;;;;;39.60;20.73;;;;;;;;;;4401303;32;318030;-81
2024/01/17 12:13:08;;;;;;;43.67;23.23;;;;;;;;;;4390194;32;330666;-82
2024/01/17 12:15:39;;;;;;;34.30;20.67;;;;;;;;;;4393866;32;318360;-84
2024/01/17 12:18:07;;;;;;;20.87;13.80;;;;;;;;;;4377527;32;418310;-82
2024/01/17 12:20:36;;;;;;;16.70;11.63;;;;;;;;;;4397909;32;317717;-84
2024/01/17 12:23:03;;;;;;;23.87;12.13;;;;;;;;;;4391483;32;417451;-81
2024/01/17 12:25:31;;;;;;;22.63;12.80;;;;;;;;;;4413400;32;317288;-83
2024/01/17 12:28:11;;;;;;;16.70;11.80;;;;;;;;;;4376778;32;317919;-83
2024/01/17 12:30:39;;;;;;;27.17;13.40;;;;;;;;;;4379441;32;318123;-82
2024/01/17 12:33:22;;;;;;;29.23;17.37;;;;;;;;;;4397202;32;317323;-81
2024/01/17 12:35:50;;;;;;;37.07;14.67;;;;;;;;;;4370046;32;350277;-81
2024/01/17 12:38:23;;;;;;;28.00;16.33;;;;;;;;;;4413363;32;317334;-82
2024/01/17 12:40:51;;;;;;;24.07;12.87;;;;;;;;;;4401190;32;316892;-82
2024/01/17 12:43:32;;;;;;;22.23;12.23;;;;;;;;;;4413746;32;318100;-84
2024/01/17 12:46:01;;;;;;;14.90;9.27;;;;;;;;;;4396627;32;318135;-83
2024/01/17 12:48:31;;;;;;;32.00;18.63;;;;;;;;;;4411970;32;316826;-83
2024/01/17 12:51:08;;;;;;;22.40;12.77;;;;;;;;;;4400873;32;317754;-83
2024/01/17 12:56:22;;;;;;;26.33;18.03;;;;;;;;;;4399706;32;388812;-82
2024/01/17 12:58:58;;;;;;;24.57;15.57;;;;;;;;;;4411087;32;317569;-81
2024/01/17 13:01:30;;;;;;;57.93;35.97;;;;;;;;;;4402568;32;324664;-81
2024/01/17 13:04:11;;;;;;;30.17;17.23;;;;;;;;;;4390937;32;344448;-81
2024/01/17 13:06:45;;;;;;;32.27;14.30;;;;;;;;;;4393579;32;316612;-81
2024/01/17 13:09:24;;;;;;;31.47;14.83;;;;;;;;;;4361828;32;418268;-81
2024/01/17 13:12:05;;;;;;;28.83;14.70;;;;;;;;;;4382821;32;316587;-81
2024/01/17 13:14:43;;;;;;;32.17;17.07;;;;;;;;;;4395204;32;317518;-81
2024/01/17 13:17:18;;;;;;;109.73;52.33;;;;;;;;;;4382943;32;419998;-82
2024/01/17 13:19:46;;;;;;;57.80;33.10;;;;;;;;;;4411595;32;319204;-82
2024/01/17 13:22:17;;;;;;;45.33;22.00;;;;;;;;;;4385949;32;316838;-82
2024/01/17 13:24:45;;;;;;;36.50;18.77;;;;;;;;;;4414458;32;317635;-82
2024/01/17 13:27:47;;;;;;;47.30;23.73;;;;;;;;;;4406150;32;316347;-83
2024/01/17 13:30:34;;;;;;;153.83;70.37;;;;;;;;;;4337276;32;319241;-82
2024/01/17 13:33:06;;;;;;;107.73;51.03;;;;;;;;;;4333987;32;319012;-84
2024/01/17 13:35:34;;;;;;;57.73;30.77;;;;;;;;;;4343738;32;318459;-82
2024/01/17 13:38:05;;;;;;;40.23;22.37;;;;;;;;;;4336813;32;358657;-83
2024/01/17 13:40:36;;;;;;;36.47;22.00;;;;;;;;;;4345490;32;318149;-82
2024/01/17 13:43:13;;;;;;;41.97;24.07;;;;;;;;;;4340275;32;339788;-82
2024/01/17 13:45:44;;;;;;;42.50;24.93;;;;;;;;;;4355898;32;317486;-83
2024/01/17 13:48:14;;;;;;;39.47;23.17;;;;;;;;;;4348665;32;318333;-83
2024/01/17 13:50:44;;;;;;;48.60;24.40;;;;;;;;;;4367135;32;317374;-84
2024/01/17 13:56:05;;;;;;;39.17;26.33;;;;;;;;;;4356806;32;317797;-82
2024/01/17 13:58:37;;;;;;;80.23;33.50;;;;;;;;;;4350547;32;317946;-82
2024/01/17 14:01:13;;;;;;;56.23;27.47;;;;;;;;;;4341368;32;328653;-84
2024/01/17 14:03:40;;;;;;;56.67;32.37;;;;;;;;;;4352146;32;317842;-83
2024/01/17 14:06:11;;;;;;;106.37;46.33;;;;;;;;;;4330345;32;318082;-84
2024/01/17 14:08:41;;;;;;;82.10;48.17;;;;;;;;;;4365448;32;319208;-83
2024/01/17 14:11:12;;;;;;;76.07;43.83;;;;;;;;;;4355177;32;317427;-82
2024/01/17 14:13:40;;;;;;;78.90;43.60;;;;;;;;;;4365661;32;317508;-82
2024/01/17 14:18:38;;;;;;;71.10;41.83;;;;;;;;;;4410891;32;347902;-83
2024/01/17 14:21:06;;;;;;;68.30;36.40;;;;;;;;;;4403563;32;317643;-80
2024/01/17 14:26:22;;;;;;;82.77;46.30;;;;;;;;;;4388916;32;389190;-81
2024/01/17 14:28:49;;;;;;;85.23;45.93;;;;;;;;;;4410330;32;318413;-81
2024/01/17 14:31:16;;;;;;;84.17;47.37;;;;;;;;;;4395208;32;318194;-79
2024/01/17 14:33:50;;;;;;;80.87;46.80;;;;;;;;;;4359914;32;318276;-79
2024/01/17 14:36:18;;;;;;;63.03;37.50;;;;;;;;;;4348713;32;318021;-81
2024/01/17 14:38:44;;;;;;;62.37;37.30;;;;;;;;;;4363474;32;317723;-81